Time,TemperatureF,DewpointF,PressureIn,WindDirection,WindDirectionDegrees,WindSpeedMPH,WindSpeedGustMPH,Humidity,HourlyPrecipIn,Conditions,Clouds,dailyrainin,SolarRadiationWatts/m^2,SoftwareType,DateUTC
2013-08-08 00:03:00,73.9,56.8,30.02,NW,317,0.0,2.0,55,0.00,,,0.00,0.0,meteohub,2013-08-08 07:03:00,
2013-08-08 00:08:00,73.9,56.8,30.02,NW,317,0.0,2.0,55,0.00,,,0.00,0.0,meteohub,2013-08-08 07:08:00,
2013-08-08 00:13:00,73.8,58.1,30.02,NW,317,0.0,1.0,58,0.00,,,0.00,0.0,meteohub,2013-08-08 07:13:00,
2013-08-08 00:18:00,73.6,57.4,30.02,NW,317,0.0,1.0,57,0.00,,,0.00,0.0,meteohub,2013-08-08 07:18:00,
2013-08-08 00:23:00,73.2,59.4,30.01,NW,317,0.0,1.0,62,0.00,,,0.00,0.0,meteohub,2013-08-08 07:23:00,
2013-08-08 00:28:00,72.9,58.1,30.01,NW,317,1.0,1.0,60,0.00,,,0.00,0.0,meteohub,2013-08-08 07:28:00,
2013-08-08 00:33:00,72.7,57.9,30.01,NW,317,2.0,2.0,60,0.00,,,0.00,0.0,meteohub,2013-08-08 07:33:00,
2013-08-08 00:38:00,73.0,55.9,30.01,NW,317,1.0,2.0,55,0.00,,,0.00,0.0,meteohub,2013-08-08 07:38:00,
2013-08-08 00:43:00,73.6,56.5,30.01,NW,317,0.0,3.0,55,0.00,,,0.00,0.0,meteohub,2013-08-08 07:43:00,
2013-08-08 00:48:00,73.6,56.8,30.01,NW,317,1.0,3.0,56,0.00,,,0.00,0.0,meteohub,2013-08-08 07:48:00,
2013-08-08 00:53:00,73.6,56.5,30.01,NW,317,1.0,2.0,55,0.00,,,0.00,0.0,meteohub,2013-08-08 07:53:00,
2013-08-08 00:58:00,73.2,56.7,30.01,NW,317,0.0,2.0,56,0.00,,,0.00,0.0,meteohub,2013-08-08 07:58:00,
2013-08-08 01:04:00,73.0,57.4,30.01,NW,317,1.0,2.0,58,0.00,,,0.00,0.0,meteohub,2013-08-08 08:04:00,
2013-08-08 01:09:00,72.7,57.6,30.01,NW,317,2.0,2.0,59,0.00,,,0.00,0.0,meteohub,2013-08-08 08:09:00,
2013-08-08 01:14:00,72.3,58.6,30.01,NW,317,0.0,2.0,62,0.00,,,0.00,0.0,meteohub,2013-08-08 08:14:00,
2013-08-08 01:19:00,72.0,56.8,30.01,NW,317,1.0,2.0,59,0.00,,,0.00,0.0,meteohub,2013-08-08 08:19:00,
2013-08-08 01:24:00,71.8,57.2,30.01,NW,317,0.0,2.0,60,0.00,,,0.00,0.0,meteohub,2013-08-08 08:24:00,
2013-08-08 01:29:00,71.8,57.2,30.01,NW,317,1.0,2.0,60,0.00,,,0.00,0.0,meteohub,2013-08-08 08:29:00,
2013-08-08 01:34:00,71.6,57.0,30.01,NW,317,0.0,2.0,60,0.00,,,0.00,0.0,meteohub,2013-08-08 08:34:00,
2013-08-08 01:39:00,71.4,57.2,30.01,NW,317,0.0,2.0,61,0.00,,,0.00,0.0,meteohub,2013-08-08 08:39:00,
2013-08-08 01:44:00,71.4,57.7,30.01,NW,317,1.0,2.0,62,0.00,,,0.00,0.0,meteohub,2013-08-08 08:44:00,
2013-08-08 01:49:00,71.1,57.7,30.01,NW,317,1.0,1.0,63,0.00,,,0.00,0.0,meteohub,2013-08-08 08:49:00,
2013-08-08 01:54:00,70.7,57.0,30.01,NW,317,1.0,1.0,62,0.00,,,0.00,0.0,meteohub,2013-08-08 08:54:00,
2013-08-08 01:59:00,70.5,56.5,30.01,NW,317,1.0,2.0,61,0.00,,,0.00,0.0,meteohub,2013-08-08 08:59:00,
2013-08-08 02:04:00,71.1,55.6,30.00,NW,317,1.0,2.0,58,0.00,,,0.00,0.0,meteohub,2013-08-08 09:04:00,
2013-08-08 02:09:00,71.2,54.7,30.00,NW,317,0.0,2.0,56,0.00,,,0.00,0.0,meteohub,2013-08-08 09:09:00,
2013-08-08 02:14:00,71.6,55.6,30.00,NW,317,0.0,2.0,57,0.00,,,0.00,0.0,meteohub,2013-08-08 09:14:00,
2013-08-08 02:19:00,71.8,57.2,30.00,NW,317,0.0,2.0,60,0.00,,,0.00,0.0,meteohub,2013-08-08 09:19:00,
2013-08-08 02:24:00,71.4,57.7,30.00,NW,317,0.0,1.0,62,0.00,,,0.00,0.0,meteohub,2013-08-08 09:24:00,
2013-08-08 02:29:00,71.1,56.8,30.00,NW,317,1.0,1.0,61,0.00,,,0.00,0.0,meteohub,2013-08-08 09:29:00,
2013-08-08 02:34:00,70.9,56.3,30.00,NW,317,0.0,1.0,60,0.00,,,0.00,0.0,meteohub,2013-08-08 09:34:00,
2013-08-08 02:39:00,70.7,57.0,30.00,NW,317,0.0,1.0,62,0.00,,,0.00,0.0,meteohub,2013-08-08 09:39:00,
2013-08-08 02:44:00,70.5,57.7,30.00,NW,317,0.0,1.0,64,0.00,,,0.00,0.0,meteohub,2013-08-08 09:44:00,
2013-08-08 02:49:00,70.2,57.0,30.00,NW,317,0.0,1.0,63,0.00,,,0.00,0.0,meteohub,2013-08-08 09:49:00,
2013-08-08 02:54:00,70.0,56.3,30.00,NW,317,0.0,1.0,62,0.00,,,0.00,0.0,meteohub,2013-08-08 09:54:00,
2013-08-08 02:59:00,70.0,56.3,30.00,NW,317,0.0,1.0,62,0.00,,,0.00,0.0,meteohub,2013-08-08 09:59:00,
2013-08-08 03:04:00,70.0,57.7,30.00,NW,317,0.0,1.0,65,0.00,,,0.00,0.0,meteohub,2013-08-08 10:04:00,
2013-08-08 03:09:00,69.8,58.3,30.00,NW,317,0.0,1.0,67,0.00,,,0.00,0.0,meteohub,2013-08-08 10:09:00,
2013-08-08 03:14:00,69.6,57.7,30.00,NW,317,0.0,1.0,66,0.00,,,0.00,0.0,meteohub,2013-08-08 10:14:00,
2013-08-08 03:19:00,69.4,57.6,30.00,NW,317,0.0,1.0,66,0.00,,,0.00,0.0,meteohub,2013-08-08 10:19:00,
2013-08-08 03:24:00,69.4,57.6,30.00,NW,317,0.0,1.0,66,0.00,,,0.00,0.0,meteohub,2013-08-08 10:24:00,
2013-08-08 03:29:00,69.3,57.9,30.00,NW,317,0.0,1.0,67,0.00,,,0.00,0.0,meteohub,2013-08-08 10:29:00,
2013-08-08 03:34:00,69.1,58.5,30.00,NW,317,0.0,1.0,69,0.00,,,0.00,0.0,meteohub,2013-08-08 10:34:00,
2013-08-08 03:39:00,69.1,58.1,30.00,NW,317,0.0,1.0,68,0.00,,,0.00,0.0,meteohub,2013-08-08 10:39:00,
2013-08-08 03:44:00,68.9,58.3,30.00,NW,317,0.0,1.0,69,0.00,,,0.00,0.0,meteohub,2013-08-08 10:44:00,
2013-08-08 03:49:00,68.7,58.1,30.00,NW,317,0.0,1.0,69,0.00,,,0.00,0.0,meteohub,2013-08-08 10:49:00,
2013-08-08 03:54:00,68.7,58.1,30.00,NW,317,1.0,1.0,69,0.00,,,0.00,0.0,meteohub,2013-08-08 10:54:00,
2013-08-08 03:59:00,68.9,57.0,30.00,NW,317,2.0,2.0,66,0.00,,,0.00,0.0,meteohub,2013-08-08 10:59:00,
2013-08-08 04:04:00,69.8,56.7,30.00,NW,317,0.0,2.0,63,0.00,,,0.00,0.0,meteohub,2013-08-08 11:04:00,
2013-08-08 04:09:00,70.3,56.3,30.00,NW,317,1.0,2.0,61,0.00,,,0.00,0.0,meteohub,2013-08-08 11:09:00,
2013-08-08 04:14:00,70.9,55.8,30.00,NW,317,1.0,2.0,59,0.00,,,0.00,0.0,meteohub,2013-08-08 11:14:00,
2013-08-08 04:19:00,71.1,55.6,30.00,NW,317,0.0,2.0,58,0.00,,,0.00,0.0,meteohub,2013-08-08 11:19:00,
2013-08-08 04:24:00,71.2,56.1,30.00,NW,317,1.0,2.0,59,0.00,,,0.00,0.0,meteohub,2013-08-08 11:24:00,
2013-08-08 04:29:00,71.4,56.8,30.00,NW,317,0.0,2.0,60,0.00,,,0.00,0.0,meteohub,2013-08-08 11:29:00,
2013-08-08 04:34:00,71.2,57.6,30.00,NW,317,0.0,2.0,62,0.00,,,0.00,0.0,meteohub,2013-08-08 11:34:00,
2013-08-08 04:39:00,70.9,56.8,30.00,NW,317,0.0,1.0,61,0.00,,,0.00,0.0,meteohub,2013-08-08 11:39:00,
2013-08-08 04:44:00,70.9,55.4,30.00,NW,317,0.0,1.0,58,0.00,,,0.00,0.0,meteohub,2013-08-08 11:44:00,
2013-08-08 04:49:00,70.9,54.9,30.00,NW,317,1.0,1.0,57,0.00,,,0.00,0.0,meteohub,2013-08-08 11:49:00,
2013-08-08 04:54:00,70.9,57.2,30.00,NW,317,0.0,1.0,62,0.00,,,0.00,0.0,meteohub,2013-08-08 11:54:00,
2013-08-08 04:59:00,70.5,56.8,30.00,NW,317,0.0,1.0,62,0.00,,,0.00,0.0,meteohub,2013-08-08 11:59:00,
2013-08-08 05:04:00,70.2,56.1,30.00,NW,317,0.0,1.0,61,0.00,,,0.00,0.0,meteohub,2013-08-08 12:04:00,
2013-08-08 05:09:00,70.0,57.2,30.00,NW,317,0.0,1.0,64,0.00,,,0.00,0.0,meteohub,2013-08-08 12:09:00,
2013-08-08 05:14:00,69.6,56.8,30.01,NW,317,0.0,1.0,64,0.00,,,0.00,0.0,meteohub,2013-08-08 12:14:00,
2013-08-08 05:19:00,69.3,57.0,30.01,NW,317,1.0,1.0,65,0.00,,,0.00,0.0,meteohub,2013-08-08 12:19:00,
2013-08-08 05:24:00,68.9,57.0,30.01,NW,317,0.0,1.0,66,0.00,,,0.00,0.0,meteohub,2013-08-08 12:24:00,
2013-08-08 05:29:00,68.7,57.4,30.01,NW,317,1.0,1.0,67,0.00,,,0.00,0.0,meteohub,2013-08-08 12:29:00,
2013-08-08 05:34:00,68.5,56.7,30.01,NW,317,0.0,2.0,66,0.00,,,0.00,0.0,meteohub,2013-08-08 12:34:00,
2013-08-08 05:39:00,68.5,56.3,30.01,NW,317,1.0,2.0,65,0.00,,,0.00,0.0,meteohub,2013-08-08 12:39:00,
2013-08-08 05:44:00,68.4,56.1,30.02,NW,317,0.0,2.0,65,0.00,,,0.00,5.0,meteohub,2013-08-08 12:44:00,
2013-08-08 05:49:00,68.4,56.1,30.02,NW,317,0.0,2.0,65,0.00,,,0.00,9.0,meteohub,2013-08-08 12:49:00,
2013-08-08 05:54:00,68.4,56.5,30.02,NW,317,0.0,1.0,66,0.00,,,0.00,12.0,meteohub,2013-08-08 12:54:00,
2013-08-08 05:59:00,68.2,57.6,30.02,NW,317,0.0,1.0,69,0.00,,,0.00,14.0,meteohub,2013-08-08 12:59:00,
2013-08-08 06:04:00,68.0,57.4,30.02,NW,317,0.0,1.0,69,0.00,,,0.00,19.0,meteohub,2013-08-08 13:04:00,
2013-08-08 06:09:00,68.0,57.9,30.03,NW,317,0.0,1.0,70,0.00,,,0.00,26.0,meteohub,2013-08-08 13:09:00,
2013-08-08 06:14:00,68.2,58.5,30.03,NW,317,0.0,1.0,71,0.00,,,0.00,39.0,meteohub,2013-08-08 13:14:00,
2013-08-08 06:19:00,68.4,58.3,30.03,NW,317,0.0,1.0,70,0.00,,,0.00,51.0,meteohub,2013-08-08 13:19:00,
2013-08-08 06:24:00,68.5,57.6,30.03,NW,317,0.0,2.0,68,0.00,,,0.00,67.0,meteohub,2013-08-08 13:24:00,
2013-08-08 06:29:00,69.3,58.3,30.03,NW,317,0.0,2.0,68,0.00,,,0.00,84.0,meteohub,2013-08-08 13:29:00,
2013-08-08 06:34:00,70.2,59.2,30.03,NW,317,0.0,2.0,68,0.00,,,0.00,100.0,meteohub,2013-08-08 13:34:00,
2013-08-08 06:39:00,70.9,58.1,30.03,NW,317,0.0,1.0,64,0.00,,,0.00,123.0,meteohub,2013-08-08 13:39:00,
2013-08-08 06:44:00,71.8,58.5,30.03,NW,317,1.0,1.0,63,0.00,,,0.00,144.0,meteohub,2013-08-08 13:44:00,
2013-08-08 06:49:00,72.7,57.9,30.03,WSW,246,0.0,1.0,60,0.00,,,0.00,162.0,meteohub,2013-08-08 13:49:00,
2013-08-08 06:54:00,73.2,57.0,30.03,WSW,246,2.0,3.0,57,0.00,,,0.00,183.0,meteohub,2013-08-08 13:54:00,
2013-08-08 06:59:00,73.8,57.0,30.03,WSW,246,1.0,3.0,56,0.00,,,0.00,200.0,meteohub,2013-08-08 13:59:00,
2013-08-08 07:05:00,74.1,57.4,30.04,WSW,250,2.0,3.0,56,0.00,,,0.00,216.0,meteohub,2013-08-08 14:05:00,
2013-08-08 07:10:00,74.5,57.2,30.04,WSW,250,1.0,3.0,55,0.00,,,0.00,234.0,meteohub,2013-08-08 14:10:00,
2013-08-08 07:15:00,74.8,57.0,30.04,WSW,250,1.0,4.0,54,0.00,,,0.00,251.0,meteohub,2013-08-08 14:15:00,
2013-08-08 07:20:00,75.0,55.6,30.04,WSW,250,2.0,4.0,51,0.00,,,0.00,269.0,meteohub,2013-08-08 14:20:00,
2013-08-08 07:25:00,75.6,56.1,30.04,WSW,257,1.0,3.0,51,0.00,,,0.00,287.0,meteohub,2013-08-08 14:25:00,
2013-08-08 07:30:00,75.9,55.4,30.04,WSW,257,1.0,3.0,49,0.00,,,0.00,302.0,meteohub,2013-08-08 14:30:00,
2013-08-08 07:35:00,76.5,55.9,30.04,WSW,257,1.0,3.0,49,0.00,,,0.00,320.0,meteohub,2013-08-08 14:35:00,
2013-08-08 07:40:00,77.2,55.9,30.04,WSW,257,1.0,3.0,48,0.00,,,0.00,339.0,meteohub,2013-08-08 14:40:00,
2013-08-08 07:45:00,77.9,55.4,30.04,WSW,257,0.0,3.0,46,0.00,,,0.00,357.0,meteohub,2013-08-08 14:45:00,
2013-08-08 07:50:00,78.4,55.4,30.04,WSW,257,1.0,3.0,45,0.00,,,0.00,376.0,meteohub,2013-08-08 14:50:00,
2013-08-08 07:55:00,79.2,55.4,30.04,WSW,257,1.0,3.0,44,0.00,,,0.00,394.0,meteohub,2013-08-08 14:55:00,
2013-08-08 08:00:00,79.5,55.8,30.04,WSW,257,0.0,3.0,44,0.00,,,0.00,411.0,meteohub,2013-08-08 15:00:00,
2013-08-08 08:05:00,80.1,55.6,30.04,WSW,257,2.0,3.0,43,0.00,,,0.00,425.0,meteohub,2013-08-08 15:05:00,
2013-08-08 08:10:00,80.8,54.9,30.04,WSW,257,1.0,3.0,41,0.00,,,0.00,445.0,meteohub,2013-08-08 15:10:00,
2013-08-08 08:15:00,81.3,56.1,30.04,WSW,257,2.0,3.0,42,0.00,,,0.00,462.0,meteohub,2013-08-08 15:15:00,
2013-08-08 08:20:00,81.9,55.2,30.04,West,275,0.0,3.0,40,0.00,,,0.00,480.0,meteohub,2013-08-08 15:20:00,
2013-08-08 08:25:00,82.2,55.6,30.04,West,263,0.0,4.0,40,0.00,,,0.00,497.0,meteohub,2013-08-08 15:25:00,
2013-08-08 08:30:00,82.8,54.5,30.04,WNW,294,2.0,4.0,38,0.00,,,0.00,513.0,meteohub,2013-08-08 15:30:00,
2013-08-08 08:35:00,83.1,54.9,30.04,WSW,250,2.0,4.0,38,0.00,,,0.00,531.0,meteohub,2013-08-08 15:35:00,
2013-08-08 08:40:00,83.7,55.4,30.05,West,259,1.0,4.0,38,0.00,,,0.00,545.0,meteohub,2013-08-08 15:40:00,
2013-08-08 08:45:00,84.0,54.9,30.05,WSW,242,2.0,4.0,37,0.00,,,0.00,557.0,meteohub,2013-08-08 15:45:00,
2013-08-08 08:50:00,84.6,54.0,30.05,SW,234,1.0,4.0,35,0.00,,,0.00,577.0,meteohub,2013-08-08 15:50:00,
2013-08-08 08:55:00,84.9,53.4,30.05,West,265,3.0,4.0,34,0.00,,,0.00,594.0,meteohub,2013-08-08 15:55:00,
2013-08-08 09:00:00,85.3,52.2,30.04,West,267,1.0,4.0,32,0.00,,,0.00,610.0,meteohub,2013-08-08 16:00:00,
2013-08-08 09:05:00,86.0,52.7,30.04,West,261,1.0,4.0,32,0.00,,,0.00,628.0,meteohub,2013-08-08 16:05:00,
2013-08-08 09:10:00,86.4,52.2,30.04,SW,227,2.0,5.0,31,0.00,,,0.00,642.0,meteohub,2013-08-08 16:10:00,
2013-08-08 09:15:00,86.7,51.6,30.05,West,268,1.0,5.0,30,0.00,,,0.00,659.0,meteohub,2013-08-08 16:15:00,
2013-08-08 09:20:00,86.9,50.9,30.04,WSW,246,2.0,5.0,29,0.00,,,0.00,671.0,meteohub,2013-08-08 16:20:00,
2013-08-08 09:25:00,87.1,51.8,30.04,WSW,240,4.0,5.0,30,0.00,,,0.00,686.0,meteohub,2013-08-08 16:25:00,
2013-08-08 09:30:00,87.6,52.3,30.04,South,184,0.0,5.0,30,0.00,,,0.00,701.0,meteohub,2013-08-08 16:30:00,
2013-08-08 09:35:00,88.3,52.0,30.04,SW,232,3.0,5.0,29,0.00,,,0.00,715.0,meteohub,2013-08-08 16:35:00,
2013-08-08 09:40:00,88.7,52.3,30.04,WSW,252,2.0,5.0,29,0.00,,,0.00,728.0,meteohub,2013-08-08 16:40:00,
2013-08-08 09:45:00,89.1,51.8,30.04,WNW,292,3.0,4.0,28,0.00,,,0.00,744.0,meteohub,2013-08-08 16:45:00,
2013-08-08 09:50:00,89.2,51.8,30.04,NW,309,0.0,4.0,28,0.00,,,0.00,759.0,meteohub,2013-08-08 16:50:00,
2013-08-08 09:55:00,89.6,51.3,30.04,WSW,243,2.0,4.0,27,0.00,,,0.00,768.0,meteohub,2013-08-08 16:55:00,
2013-08-08 10:00:00,90.0,51.4,30.04,NW,304,1.0,4.0,27,0.00,,,0.00,782.0,meteohub,2013-08-08 17:00:00,
2013-08-08 10:05:00,90.0,51.4,30.04,NW,310,1.0,5.0,27,0.00,,,0.00,793.0,meteohub,2013-08-08 17:05:00,
2013-08-08 10:10:00,90.5,52.0,30.04,SW,235,1.0,5.0,27,0.00,,,0.00,807.0,meteohub,2013-08-08 17:10:00,
2013-08-08 10:15:00,91.0,51.4,30.04,SSW,198,2.0,5.0,26,0.00,,,0.00,819.0,meteohub,2013-08-08 17:15:00,
2013-08-08 10:20:00,91.0,51.4,30.04,South,175,1.0,5.0,26,0.00,,,0.00,831.0,meteohub,2013-08-08 17:20:00,
2013-08-08 10:25:00,91.4,51.6,30.04,South,171,2.0,5.0,26,0.00,,,0.00,844.0,meteohub,2013-08-08 17:25:00,
2013-08-08 10:30:00,91.6,50.7,30.04,WSW,247,2.0,5.0,25,0.00,,,0.00,854.0,meteohub,2013-08-08 17:30:00,
2013-08-08 10:35:00,91.6,50.7,30.04,WSW,252,0.0,5.0,25,0.00,,,0.00,865.0,meteohub,2013-08-08 17:35:00,
2013-08-08 10:40:00,91.9,50.0,30.04,WSW,257,1.0,5.0,24,0.00,,,0.00,875.0,meteohub,2013-08-08 17:40:00,
2013-08-08 10:45:00,92.8,50.7,30.04,NW,317,1.0,5.0,24,0.00,,,0.00,882.0,meteohub,2013-08-08 17:45:00,
2013-08-08 10:50:00,92.8,50.7,30.03,SW,221,2.0,7.0,24,0.00,,,0.00,891.0,meteohub,2013-08-08 17:50:00,
2013-08-08 10:55:00,93.4,51.3,30.03,South,188,2.0,7.0,24,0.00,,,0.00,902.0,meteohub,2013-08-08 17:55:00,
2013-08-08 11:00:00,94.1,48.2,30.03,South,171,1.0,7.0,21,0.00,,,0.00,911.0,meteohub,2013-08-08 18:00:00,
2013-08-08 11:05:00,94.6,49.8,30.03,West,262,5.0,6.0,22,0.00,,,0.00,918.0,meteohub,2013-08-08 18:05:00,
2013-08-08 11:10:00,94.5,48.6,30.03,ESE,120,1.0,6.0,21,0.00,,,0.00,926.0,meteohub,2013-08-08 18:10:00,
2013-08-08 11:15:00,94.3,47.1,30.03,West,259,4.0,11.0,20,0.00,,,0.00,940.0,meteohub,2013-08-08 18:15:00,
2013-08-08 11:20:00,94.3,47.1,30.02,NW,318,3.0,11.0,20,0.00,,,0.00,944.0,meteohub,2013-08-08 18:20:00,
2013-08-08 11:25:00,94.8,46.2,30.02,NNW,329,3.0,11.0,19,0.00,,,0.00,947.0,meteohub,2013-08-08 18:25:00,
2013-08-08 11:30:00,94.8,47.5,30.02,WSW,247,4.0,6.0,20,0.00,,,0.00,949.0,meteohub,2013-08-08 18:30:00,
2013-08-08 11:35:00,95.2,43.5,30.02,SSW,207,4.0,7.0,17,0.00,,,0.00,963.0,meteohub,2013-08-08 18:35:00,
2013-08-08 11:40:00,95.2,46.4,30.02,WSW,245,2.0,10.0,19,0.00,,,0.00,963.0,meteohub,2013-08-08 18:40:00,
2013-08-08 11:45:00,95.5,45.3,30.02,WSW,240,4.0,10.0,18,0.00,,,0.00,969.0,meteohub,2013-08-08 18:45:00,
2013-08-08 11:50:00,95.5,45.3,30.02,NW,316,3.0,8.0,18,0.00,,,0.00,970.0,meteohub,2013-08-08 18:50:00,
2013-08-08 11:55:00,95.2,45.0,30.02,SW,214,1.0,10.0,18,0.00,,,0.00,976.0,meteohub,2013-08-08 18:55:00,
2013-08-08 12:00:00,95.0,44.8,30.01,West,263,1.0,10.0,18,0.00,,,0.00,972.0,meteohub,2013-08-08 19:00:00,
2013-08-08 12:05:00,95.5,45.3,30.01,NW,304,3.0,10.0,18,0.00,,,0.00,983.0,meteohub,2013-08-08 19:05:00,
2013-08-08 12:10:00,95.7,43.9,30.01,SE,132,3.0,9.0,17,0.00,,,0.00,991.0,meteohub,2013-08-08 19:10:00,
2013-08-08 12:15:00,96.3,44.4,30.01,SW,231,7.0,11.0,17,0.00,,,0.00,991.0,meteohub,2013-08-08 19:15:00,
2013-08-08 12:20:00,96.4,44.6,30.01,West,262,7.0,11.0,17,0.00,,,0.00,997.0,meteohub,2013-08-08 19:20:00,
2013-08-08 12:25:00,96.3,44.4,30.01,West,266,2.0,10.0,17,0.00,,,0.00,995.0,meteohub,2013-08-08 19:25:00,
2013-08-08 12:30:00,96.3,45.9,30.01,SE,143,2.0,10.0,18,0.00,,,0.00,983.0,meteohub,2013-08-08 19:30:00,
2013-08-08 12:35:00,96.1,45.7,30.01,WSW,244,4.0,10.0,18,0.00,,,0.00,988.0,meteohub,2013-08-08 19:35:00,
2013-08-08 12:41:00,96.1,44.2,30.00,SW,224,1.0,9.0,17,0.00,,,0.00,991.0,meteohub,2013-08-08 19:41:00,
2013-08-08 12:46:00,96.1,44.2,30.00,NE,37,3.0,7.0,17,0.00,,,0.00,990.0,meteohub,2013-08-08 19:46:00,
2013-08-08 12:51:00,96.3,44.4,30.00,SW,219,2.0,6.0,17,0.00,,,0.00,984.0,meteohub,2013-08-08 19:51:00,
2013-08-08 12:56:00,96.8,44.8,30.00,West,264,6.0,9.0,17,0.00,,,0.00,991.0,meteohub,2013-08-08 19:56:00,
2013-08-08 13:02:00,97.3,45.3,30.00,SW,232,6.0,10.0,17,0.00,,,0.00,986.0,meteohub,2013-08-08 20:02:00,
2013-08-08 13:07:00,97.9,44.1,30.00,WSW,258,3.0,10.0,16,0.00,,,0.00,984.0,meteohub,2013-08-08 20:07:00,
2013-08-08 13:12:00,97.9,42.4,29.99,SW,216,3.0,10.0,15,0.00,,,0.00,988.0,meteohub,2013-08-08 20:12:00,
2013-08-08 13:17:00,97.9,42.4,29.99,SSW,210,5.0,10.0,15,0.00,,,0.00,977.0,meteohub,2013-08-08 20:17:00,
2013-08-08 13:22:00,97.7,42.3,29.99,West,267,1.0,8.0,15,0.00,,,0.00,974.0,meteohub,2013-08-08 20:22:00,
2013-08-08 13:27:00,98.1,40.8,29.99,WSW,257,4.0,7.0,14,0.00,,,0.00,974.0,meteohub,2013-08-08 20:27:00,
2013-08-08 13:32:00,97.9,38.7,29.99,SSW,200,5.0,9.0,13,0.00,,,0.00,967.0,meteohub,2013-08-08 20:32:00,
2013-08-08 13:37:00,98.2,39.0,29.99,SSW,205,3.0,9.0,13,0.00,,,0.00,965.0,meteohub,2013-08-08 20:37:00,
2013-08-08 13:42:00,99.0,35.2,29.99,South,189,1.0,9.0,11,0.00,,,0.00,969.0,meteohub,2013-08-08 20:42:00,
2013-08-08 13:47:00,99.3,35.6,29.99,South,169,1.0,9.0,11,0.00,,,0.00,962.0,meteohub,2013-08-08 20:47:00,
2013-08-08 13:52:00,99.3,37.8,29.99,South,189,4.0,7.0,12,0.00,,,0.00,940.0,meteohub,2013-08-08 20:52:00,
2013-08-08 13:57:00,99.3,39.7,29.98,SSW,192,2.0,10.0,13,0.00,,,0.00,944.0,meteohub,2013-08-08 20:57:00,
2013-08-08 14:02:00,99.1,37.6,29.98,SW,221,6.0,10.0,12,0.00,,,0.00,946.0,meteohub,2013-08-08 21:02:00,
2013-08-08 14:07:00,99.0,37.6,29.98,WSW,250,1.0,9.0,12,0.00,,,0.00,930.0,meteohub,2013-08-08 21:07:00,
2013-08-08 14:12:00,99.0,39.6,29.98,West,266,4.0,13.0,13,0.00,,,0.00,923.0,meteohub,2013-08-08 21:12:00,
2013-08-08 14:17:00,99.0,37.6,29.98,West,267,4.0,13.0,12,0.00,,,0.00,904.0,meteohub,2013-08-08 21:17:00,
2013-08-08 14:22:00,98.8,37.4,29.98,WSW,238,2.0,13.0,12,0.00,,,0.00,896.0,meteohub,2013-08-08 21:22:00,
2013-08-08 14:27:00,98.4,37.0,29.97,WSW,248,2.0,9.0,12,0.00,,,0.00,891.0,meteohub,2013-08-08 21:27:00,
2013-08-08 14:32:00,98.6,37.2,29.97,SSE,164,3.0,9.0,12,0.00,,,0.00,877.0,meteohub,2013-08-08 21:32:00,
2013-08-08 14:37:00,99.0,35.2,29.96,WNW,284,2.0,9.0,11,0.00,,,0.00,865.0,meteohub,2013-08-08 21:37:00,
2013-08-08 14:42:00,99.1,39.7,29.96,West,281,4.0,9.0,13,0.00,,,0.00,856.0,meteohub,2013-08-08 21:42:00,
2013-08-08 14:47:00,99.0,39.6,29.96,West,259,1.0,9.0,13,0.00,,,0.00,846.0,meteohub,2013-08-08 21:47:00,
2013-08-08 14:52:00,99.5,39.9,29.96,West,273,3.0,9.0,13,0.00,,,0.00,826.0,meteohub,2013-08-08 21:52:00,
2013-08-08 14:58:00,99.0,37.6,29.96,SW,236,4.0,9.0,12,0.00,,,0.00,819.0,meteohub,2013-08-08 21:58:00,
2013-08-08 15:03:00,98.8,39.4,29.96,West,262,3.0,8.0,13,0.00,,,0.00,803.0,meteohub,2013-08-08 22:03:00,
2013-08-08 15:08:00,99.1,39.7,29.96,SW,230,2.0,8.0,13,0.00,,,0.00,795.0,meteohub,2013-08-08 22:08:00,
2013-08-08 15:13:00,99.3,37.8,29.95,WNW,292,1.0,8.0,12,0.00,,,0.00,784.0,meteohub,2013-08-08 22:13:00,
2013-08-08 15:18:00,99.7,38.1,29.95,WNW,292,1.0,6.0,12,0.00,,,0.00,770.0,meteohub,2013-08-08 22:18:00,
2013-08-08 15:23:00,100.2,38.5,29.94,South,190,3.0,6.0,12,0.00,,,0.00,763.0,meteohub,2013-08-08 22:23:00,
2013-08-08 15:28:00,99.7,42.1,29.94,SE,142,4.0,9.0,14,0.00,,,0.00,754.0,meteohub,2013-08-08 22:28:00,
2013-08-08 15:33:00,100.0,42.3,29.94,West,271,3.0,9.0,14,0.00,,,0.00,758.0,meteohub,2013-08-08 22:33:00,
2013-08-08 15:38:00,100.2,40.5,29.94,West,260,6.0,9.0,13,0.00,,,0.00,742.0,meteohub,2013-08-08 22:38:00,
2013-08-08 15:43:00,99.5,41.9,29.94,WSW,257,6.0,15.0,14,0.00,,,0.00,700.0,meteohub,2013-08-08 22:43:00,
2013-08-08 15:48:00,99.3,39.7,29.94,WSW,246,3.0,15.0,13,0.00,,,0.00,707.0,meteohub,2013-08-08 22:48:00,
2013-08-08 15:53:00,99.3,41.7,29.94,SW,220,4.0,15.0,14,0.00,,,0.00,686.0,meteohub,2013-08-08 22:53:00,
2013-08-08 15:59:00,99.3,41.7,29.94,SW,223,5.0,9.0,14,0.00,,,0.00,664.0,meteohub,2013-08-08 22:59:00,
2013-08-08 16:04:00,99.1,41.5,29.94,SW,225,5.0,9.0,14,0.00,,,0.00,640.0,meteohub,2013-08-08 23:04:00,
2013-08-08 16:09:00,99.3,41.7,29.94,SSW,209,3.0,9.0,14,0.00,,,0.00,621.0,meteohub,2013-08-08 23:09:00,
2013-08-08 16:14:00,99.1,41.5,29.94,SW,221,2.0,10.0,14,0.00,,,0.00,610.0,meteohub,2013-08-08 23:14:00,
2013-08-08 16:20:00,99.1,41.5,29.94,SW,227,5.0,10.0,14,0.00,,,0.00,596.0,meteohub,2013-08-08 23:20:00,
2013-08-08 16:25:00,98.8,39.4,29.93,WNW,284,2.0,10.0,13,0.00,,,0.00,578.0,meteohub,2013-08-08 23:25:00,
2013-08-08 16:30:00,98.8,41.4,29.93,West,273,0.0,7.0,14,0.00,,,0.00,568.0,meteohub,2013-08-08 23:30:00,
2013-08-08 16:35:00,98.8,41.4,29.93,SW,227,4.0,7.0,14,0.00,,,0.00,545.0,meteohub,2013-08-08 23:35:00,
2013-08-08 16:40:00,99.1,39.7,29.93,SSW,205,3.0,6.0,13,0.00,,,0.00,527.0,meteohub,2013-08-08 23:40:00,
2013-08-08 16:45:00,99.3,39.7,29.93,WSW,246,6.0,9.0,13,0.00,,,0.00,503.0,meteohub,2013-08-08 23:45:00,
2013-08-08 16:51:00,99.5,37.9,29.93,South,190,7.0,9.0,12,0.00,,,0.00,494.0,meteohub,2013-08-08 23:51:00,
2013-08-08 16:56:00,99.0,39.6,29.93,SSW,197,6.0,9.0,13,0.00,,,0.00,90.0,meteohub,2013-08-08 23:56:00,
2013-08-08 17:01:00,97.9,38.7,29.93,SW,229,5.0,8.0,13,0.00,,,0.00,86.0,meteohub,2013-08-09 00:01:00,
2013-08-08 17:07:00,97.2,40.1,29.93,SW,215,5.0,8.0,14,0.00,,,0.00,445.0,meteohub,2013-08-09 00:07:00,
2013-08-08 17:12:00,96.6,41.4,29.92,SW,217,3.0,8.0,15,0.00,,,0.00,83.0,meteohub,2013-08-09 00:12:00,
2013-08-08 17:17:00,96.3,41.2,29.92,SW,219,2.0,8.0,15,0.00,,,0.00,163.0,meteohub,2013-08-09 00:17:00,
2013-08-08 17:22:00,96.4,41.2,29.92,SW,216,2.0,8.0,15,0.00,,,0.00,100.0,meteohub,2013-08-09 00:22:00,
2013-08-08 17:27:00,96.6,41.4,29.92,SW,234,4.0,8.0,15,0.00,,,0.00,239.0,meteohub,2013-08-09 00:27:00,
2013-08-08 17:32:00,96.8,41.5,29.92,SSW,195,2.0,8.0,15,0.00,,,0.00,355.0,meteohub,2013-08-09 00:32:00,
2013-08-08 17:37:00,97.2,41.9,29.92,SSW,199,1.0,7.0,15,0.00,,,0.00,269.0,meteohub,2013-08-09 00:37:00,
2013-08-08 17:42:00,97.2,40.1,29.92,West,267,3.0,7.0,14,0.00,,,0.00,323.0,meteohub,2013-08-09 00:42:00,
2013-08-08 17:47:00,97.2,40.1,29.91,SW,214,2.0,7.0,14,0.00,,,0.00,306.0,meteohub,2013-08-09 00:47:00,
2013-08-08 17:52:00,97.2,41.9,29.92,WSW,256,4.0,8.0,15,0.00,,,0.00,285.0,meteohub,2013-08-09 00:52:00,
2013-08-08 17:57:00,97.3,40.1,29.92,SW,217,2.0,8.0,14,0.00,,,0.00,262.0,meteohub,2013-08-09 00:57:00,
2013-08-08 18:03:00,97.3,40.1,29.91,WSW,257,1.0,8.0,14,0.00,,,0.00,239.0,meteohub,2013-08-09 01:03:00,
2013-08-08 18:08:00,97.5,40.3,29.91,SSW,202,4.0,5.0,14,0.00,,,0.00,206.0,meteohub,2013-08-09 01:08:00,
2013-08-08 18:13:00,97.3,38.3,29.91,WSW,239,5.0,5.0,13,0.00,,,0.00,144.0,meteohub,2013-08-09 01:13:00,
2013-08-08 18:18:00,96.6,37.8,29.91,WSW,248,4.0,12.0,13,0.00,,,0.00,88.0,meteohub,2013-08-09 01:18:00,
2013-08-08 18:24:00,96.1,37.2,29.91,WSW,238,2.0,12.0,13,0.00,,,0.00,72.0,meteohub,2013-08-09 01:24:00,
2013-08-08 18:29:00,95.5,36.9,29.91,SW,221,3.0,12.0,13,0.00,,,0.00,46.0,meteohub,2013-08-09 01:29:00,
2013-08-08 18:34:00,95.4,36.7,29.92,SW,226,4.0,7.0,13,0.00,,,0.00,30.0,meteohub,2013-08-09 01:34:00,
2013-08-08 18:39:00,95.0,38.3,29.91,West,264,1.0,7.0,14,0.00,,,0.00,26.0,meteohub,2013-08-09 01:39:00,
2013-08-08 18:44:00,94.6,38.1,29.91,WSW,258,1.0,7.0,14,0.00,,,0.00,23.0,meteohub,2013-08-09 01:44:00,
2013-08-08 18:51:00,94.5,36.0,29.91,WSW,242,2.0,7.0,13,0.00,,,0.00,21.0,meteohub,2013-08-09 01:51:00,
2013-08-08 18:56:00,93.9,35.6,29.91,WSW,255,3.0,7.0,13,0.00,,,0.00,16.0,meteohub,2013-08-09 01:56:00,
2013-08-08 19:01:00,93.6,35.4,29.91,West,265,3.0,6.0,13,0.00,,,0.00,12.0,meteohub,2013-08-09 02:01:00,
2013-08-08 19:06:00,93.2,35.1,29.91,WSW,258,1.0,6.0,13,0.00,,,0.00,11.0,meteohub,2013-08-09 02:06:00,
2013-08-08 19:11:00,92.8,34.7,29.92,WSW,254,1.0,6.0,13,0.00,,,0.00,7.0,meteohub,2013-08-09 02:11:00,
2013-08-08 19:16:00,92.5,36.3,29.91,SW,232,1.0,6.0,14,0.00,,,0.00,5.0,meteohub,2013-08-09 02:16:00,
2013-08-08 19:21:00,91.9,36.0,29.91,WSW,250,0.0,4.0,14,0.00,,,0.00,0.0,meteohub,2013-08-09 02:21:00,
2013-08-08 19:26:00,91.6,37.4,29.91,WSW,250,0.0,4.0,15,0.00,,,0.00,0.0,meteohub,2013-08-09 02:26:00,
2013-08-08 19:31:00,91.0,38.7,29.92,WSW,250,1.0,3.0,16,0.00,,,0.00,0.0,meteohub,2013-08-09 02:31:00,
2013-08-08 19:36:00,90.3,39.6,29.92,WSW,250,0.0,2.0,17,0.00,,,0.00,0.0,meteohub,2013-08-09 02:36:00,
2013-08-08 19:42:00,89.8,42.1,29.92,WSW,250,0.0,1.0,19,0.00,,,0.00,0.0,meteohub,2013-08-09 02:42:00,
2013-08-08 19:47:00,88.9,41.4,29.92,WSW,250,0.0,1.0,19,0.00,,,0.00,0.0,meteohub,2013-08-09 02:47:00,
2013-08-08 19:52:00,88.2,44.6,29.92,WSW,250,0.0,1.0,22,0.00,,,0.00,0.0,meteohub,2013-08-09 02:52:00,
2013-08-08 19:57:00,87.4,43.9,29.92,WSW,250,0.0,1.0,22,0.00,,,0.00,0.0,meteohub,2013-08-09 02:57:00,
2013-08-08 20:02:00,86.7,42.1,29.92,WSW,250,1.0,1.0,21,0.00,,,0.00,0.0,meteohub,2013-08-09 03:02:00,
2013-08-08 20:07:00,86.2,46.2,29.92,WSW,250,0.0,1.0,25,0.00,,,0.00,0.0,meteohub,2013-08-09 03:07:00,
2013-08-08 20:12:00,85.5,42.3,29.92,WSW,250,0.0,1.0,22,0.00,,,0.00,0.0,meteohub,2013-08-09 03:12:00,
2013-08-08 20:17:00,84.9,41.9,29.93,WSW,250,0.0,1.0,22,0.00,,,0.00,0.0,meteohub,2013-08-09 03:17:00,
2013-08-08 20:23:00,84.6,42.6,29.93,WSW,250,0.0,1.0,23,0.00,,,0.00,0.0,meteohub,2013-08-09 03:23:00,
2013-08-08 20:28:00,84.2,46.6,29.93,WSW,250,0.0,1.0,27,0.00,,,0.00,0.0,meteohub,2013-08-09 03:28:00,
2013-08-08 20:33:00,83.8,48.2,29.93,WSW,250,0.0,1.0,29,0.00,,,0.00,0.0,meteohub,2013-08-09 03:33:00,
2013-08-08 20:39:00,83.1,47.7,29.93,WSW,250,0.0,1.0,29,0.00,,,0.00,0.0,meteohub,2013-08-09 03:39:00,
2013-08-08 20:44:00,82.8,47.3,29.93,WSW,250,0.0,1.0,29,0.00,,,0.00,0.0,meteohub,2013-08-09 03:44:00,
2013-08-08 20:49:00,82.2,46.8,29.94,WSW,250,1.0,2.0,29,0.00,,,0.00,0.0,meteohub,2013-08-09 03:49:00,
2013-08-08 20:55:00,81.9,46.4,29.94,WSW,250,0.0,2.0,29,0.00,,,0.00,0.0,meteohub,2013-08-09 03:55:00,
2013-08-08 21:00:00,81.3,44.1,29.94,WSW,250,1.0,2.0,27,0.00,,,0.00,0.0,meteohub,2013-08-09 04:00:00,
2013-08-08 21:01:00,81.3,44.1,29.94,WSW,250,0.0,2.0,27,0.00,,,0.00,0.0,meteohub,2013-08-09 04:01:00,
2013-08-08 21:02:00,81.3,46.0,29.94,WSW,250,0.0,2.0,29,0.00,,,0.00,0.0,meteohub,2013-08-09 04:02:00,
2013-08-08 21:07:00,81.1,45.0,29.94,WSW,250,0.0,2.0,28,0.00,,,0.00,0.0,meteohub,2013-08-09 04:07:00,
2013-08-08 21:12:00,81.0,44.8,29.94,WSW,250,0.0,2.0,28,0.00,,,0.00,0.0,meteohub,2013-08-09 04:12:00,
2013-08-08 21:18:00,80.8,47.3,29.95,WSW,250,0.0,1.0,31,0.00,,,0.00,0.0,meteohub,2013-08-09 04:18:00,
2013-08-08 21:23:00,80.2,45.1,29.95,WSW,250,1.0,2.0,29,0.00,,,0.00,0.0,meteohub,2013-08-09 04:23:00,
2013-08-08 21:28:00,80.1,46.8,29.95,WSW,250,0.0,2.0,31,0.00,,,0.00,0.0,meteohub,2013-08-09 04:28:00,
2013-08-08 21:33:00,79.7,46.4,29.95,WSW,250,0.0,2.0,31,0.00,,,0.00,0.0,meteohub,2013-08-09 04:33:00,
2013-08-08 21:38:00,79.3,46.9,29.96,WSW,250,0.0,2.0,32,0.00,,,0.00,0.0,meteohub,2013-08-09 04:38:00,
2013-08-08 21:43:00,79.2,46.8,29.96,WSW,250,0.0,2.0,32,0.00,,,0.00,0.0,meteohub,2013-08-09 04:43:00,
2013-08-08 21:48:00,78.8,47.3,29.96,WSW,250,0.0,2.0,33,0.00,,,0.00,0.0,meteohub,2013-08-09 04:48:00,
2013-08-08 21:53:00,78.4,46.2,29.96,WSW,250,1.0,1.0,32,0.00,,,0.00,0.0,meteohub,2013-08-09 04:53:00,
2013-08-08 21:58:00,78.1,47.5,29.96,WSW,250,0.0,1.0,34,0.00,,,0.00,0.0,meteohub,2013-08-09 04:58:00,
2013-08-08 22:03:00,77.4,46.0,29.96,WSW,250,0.0,1.0,33,0.00,,,0.00,0.0,meteohub,2013-08-09 05:03:00,
2013-08-08 22:08:00,76.8,47.1,29.96,WSW,250,0.0,1.0,35,0.00,,,0.00,0.0,meteohub,2013-08-09 05:08:00,
2013-08-08 22:13:00,76.5,47.5,29.96,WSW,250,0.0,1.0,36,0.00,,,0.00,0.0,meteohub,2013-08-09 05:13:00,
2013-08-08 22:18:00,76.1,47.1,29.96,WSW,250,0.0,1.0,36,0.00,,,0.00,0.0,meteohub,2013-08-09 05:18:00,
2013-08-08 22:23:00,75.7,46.9,29.96,WSW,250,0.0,1.0,36,0.00,,,0.00,0.0,meteohub,2013-08-09 05:23:00,
2013-08-08 22:28:00,75.6,48.2,29.96,WSW,250,2.0,2.0,38,0.00,,,0.00,0.0,meteohub,2013-08-09 05:28:00,
2013-08-08 22:33:00,75.0,47.7,29.96,WSW,250,0.0,2.0,38,0.00,,,0.00,0.0,meteohub,2013-08-09 05:33:00,
2013-08-08 22:38:00,74.8,43.9,29.96,WSW,250,1.0,2.0,33,0.00,,,0.00,0.0,meteohub,2013-08-09 05:38:00,
2013-08-08 22:43:00,75.0,46.2,29.96,WSW,250,0.0,2.0,36,0.00,,,0.00,0.0,meteohub,2013-08-09 05:43:00,
2013-08-08 22:48:00,74.8,47.5,29.96,WSW,250,0.0,2.0,38,0.00,,,0.00,0.0,meteohub,2013-08-09 05:48:00,
2013-08-08 22:53:00,74.5,47.1,29.97,WSW,250,1.0,2.0,38,0.00,,,0.00,0.0,meteohub,2013-08-09 05:53:00,
2013-08-08 22:58:00,74.3,47.1,29.96,WSW,250,1.0,2.0,38,0.00,,,0.00,0.0,meteohub,2013-08-09 05:58:00,
2013-08-08 23:03:00,74.1,48.2,29.97,WSW,250,0.0,2.0,40,0.00,,,0.00,0.0,meteohub,2013-08-09 06:03:00,
2013-08-08 23:08:00,73.9,48.0,29.97,WSW,250,0.0,2.0,40,0.00,,,0.00,0.0,meteohub,2013-08-09 06:08:00,
2013-08-08 23:13:00,73.8,48.6,29.97,WSW,250,0.0,1.0,41,0.00,,,0.00,0.0,meteohub,2013-08-09 06:13:00,
2013-08-08 23:18:00,73.2,48.7,29.97,WSW,250,0.0,2.0,42,0.00,,,0.00,0.0,meteohub,2013-08-09 06:18:00,
2013-08-08 23:23:00,73.0,47.3,29.96,WSW,250,1.0,2.0,40,0.00,,,0.00,0.0,meteohub,2013-08-09 06:23:00,
2013-08-08 23:30:00,72.7,47.7,29.97,WSW,250,0.0,2.0,41,0.00,,,0.00,0.0,meteohub,2013-08-09 06:30:00,
2013-08-08 23:35:00,72.9,48.4,29.97,WSW,250,0.0,2.0,42,0.00,,,0.00,0.0,meteohub,2013-08-09 06:35:00,
2013-08-08 23:40:00,72.9,47.1,29.97,WSW,250,0.0,2.0,40,0.00,,,0.00,0.0,meteohub,2013-08-09 06:40:00,
2013-08-08 23:45:00,72.7,47.7,29.97,WSW,250,1.0,2.0,41,0.00,,,0.00,0.0,meteohub,2013-08-09 06:45:00,
2013-08-08 23:50:00,72.5,46.8,29.97,WSW,250,0.0,2.0,40,0.00,,,0.00,0.0,meteohub,2013-08-09 06:50:00,
2013-08-08 23:55:00,72.3,48.6,29.97,WSW,250,1.0,2.0,43,0.00,,,0.00,0.0,meteohub,2013-08-09 06:55:00,